createdAt,value
2023-04-19T00:00:44.061Z,70.23
2023-04-19T00:03:12.497Z,70.16
2023-04-19T00:05:41.676Z,70.28
2023-04-19T00:08:09.813Z,70.23
2023-04-19T00:10:40.686Z,70.25
2023-04-19T00:13:08.881Z,70.04
2023-04-19T00:15:38.182Z,70.04
2023-04-19T00:18:06.400Z,69.94
2023-04-19T00:20:35.015Z,69.83
2023-04-19T00:23:04.002Z,69.80
2023-04-19T00:25:34.753Z,69.72
2023-04-19T00:28:04.117Z,69.76
2023-04-19T00:30:32.471Z,69.73
2023-04-19T00:33:01.311Z,69.77
2023-04-19T00:35:29.809Z,69.71
2023-04-19T00:37:58.004Z,69.91
2023-04-19T00:40:26.327Z,69.98
2023-04-19T00:42:54.552Z,70.25
2023-04-19T00:45:22.776Z,70.55
2023-04-19T00:47:53.798Z,70.40
2023-04-19T00:50:22.012Z,70.17
2023-04-19T00:52:50.212Z,70.18
2023-04-19T00:55:18.568Z,70.00
2023-04-19T00:57:46.881Z,69.46
2023-04-19T01:00:15.341Z,69.20
2023-04-19T01:02:44.077Z,69.13
2023-04-19T01:05:13.162Z,69.14
2023-04-19T01:07:42.122Z,69.29
2023-04-19T01:10:10.707Z,69.19
2023-04-19T01:12:39.187Z,68.97
2023-04-19T01:15:08.301Z,68.53
2023-04-19T01:17:37.252Z,68.47
2023-04-19T01:20:08.214Z,68.39
2023-04-19T01:22:38.102Z,68.22
2023-04-19T01:25:07.501Z,67.95
2023-04-19T01:27:36.418Z,68.02
2023-04-19T01:30:05.073Z,67.99
2023-04-19T01:32:33.926Z,67.83
2023-04-19T01:35:02.188Z,67.72
2023-04-19T01:37:35.694Z,67.73
2023-04-19T01:40:05.753Z,67.68
2023-04-19T01:42:34.045Z,67.67
2023-04-19T01:45:02.503Z,67.60
2023-04-19T01:47:31.119Z,67.51
2023-04-19T01:49:59.299Z,67.34
2023-04-19T01:52:27.530Z,67.29
2023-04-19T01:54:55.732Z,67.32
2023-04-19T01:57:24.066Z,67.21
2023-04-19T01:59:53.796Z,67.39
2023-04-19T02:02:22.306Z,67.50
2023-04-19T02:04:50.789Z,67.56
2023-04-19T02:07:19.090Z,67.66
2023-04-19T02:09:47.772Z,67.46
2023-04-19T02:12:16.877Z,67.42
2023-04-19T02:14:45.421Z,67.44
2023-04-19T02:17:13.637Z,67.35
2023-04-19T02:19:41.888Z,67.38
2023-04-19T02:22:10.107Z,67.48
2023-04-19T02:24:40.710Z,67.55
2023-04-19T02:27:08.907Z,67.41
2023-04-19T02:29:38.078Z,67.51
2023-04-19T02:32:07.134Z,67.62
2023-04-19T02:34:35.788Z,67.60
2023-04-19T02:37:03.998Z,67.39
2023-04-19T02:39:32.424Z,67.63
2023-04-19T02:42:01.556Z,67.78
2023-04-19T02:44:29.967Z,68.05
2023-04-19T02:46:58.146Z,68.33
2023-04-19T02:49:26.473Z,68.34
2023-04-19T02:51:54.911Z,68.42
2023-04-19T02:54:23.368Z,68.37
2023-04-19T02:56:53.430Z,68.47
2023-04-19T02:59:21.642Z,68.53
2023-04-19T03:01:50.128Z,68.36
2023-04-19T03:04:18.973Z,68.36
2023-04-19T03:06:47.310Z,68.46
2023-04-19T03:09:17.278Z,68.58
2023-04-19T03:11:45.558Z,68.61
2023-04-19T03:14:14.285Z,68.73
2023-04-19T03:16:42.912Z,68.83
2023-04-19T03:19:11.583Z,68.96
2023-04-19T03:21:45.792Z,68.99
2023-04-19T03:24:14.386Z,69.04
2023-04-19T03:26:46.682Z,69.23
2023-04-19T03:29:15.628Z,69.07
2023-04-19T03:31:58.661Z,69.05
2023-04-19T03:34:26.850Z,69.04
2023-04-19T03:36:55.985Z,69.20
2023-04-19T03:39:24.297Z,69.18
2023-04-19T03:41:56.013Z,69.28
2023-04-19T03:44:44.885Z,68.96
2023-04-19T03:47:13.062Z,68.55
2023-04-19T03:49:44.781Z,68.42
2023-04-19T03:52:13.761Z,68.15
2023-04-19T03:54:42.017Z,67.72
2023-04-19T03:57:17.763Z,67.32
2023-04-19T03:59:45.934Z,66.88
2023-04-19T04:02:14.292Z,66.76
2023-04-19T04:04:42.683Z,66.72
2023-04-19T04:07:11.215Z,66.54
2023-04-19T04:09:39.844Z,66.37
2023-04-19T04:12:08.085Z,66.02
2023-04-19T04:14:37.738Z,65.62
2023-04-19T04:17:06.457Z,65.27
2023-04-19T04:19:35.410Z,64.92
2023-04-19T04:22:04.253Z,64.82
2023-04-19T04:24:41.546Z,64.82
2023-04-19T04:27:22.478Z,64.62
2023-04-19T04:29:54.608Z,64.29
2023-04-19T04:32:23.887Z,64.35
2023-04-19T04:34:56.206Z,64.50
2023-04-19T04:37:35.398Z,64.29
2023-04-19T04:40:06.894Z,64.31
2023-04-19T04:42:37.887Z,64.31
2023-04-19T04:45:07.222Z,64.07
2023-04-19T04:47:38.415Z,64.21
2023-04-19T04:50:07.905Z,64.36
2023-04-19T04:52:37.070Z,64.28
2023-04-19T04:55:14.311Z,64.12
2023-04-19T04:57:44.916Z,63.82
2023-04-19T05:00:19.909Z,63.60
2023-04-19T05:02:55.641Z,63.26
2023-04-19T05:05:24.592Z,63.16
2023-04-19T05:07:53.040Z,63.25
2023-04-19T05:10:22.734Z,62.57
2023-04-19T05:12:51.081Z,61.83
2023-04-19T05:15:19.777Z,61.59
2023-04-19T05:17:53.139Z,61.19
2023-04-19T05:20:21.741Z,61.43
2023-04-19T05:22:57.507Z,61.40
2023-04-19T05:25:25.944Z,61.62
2023-04-19T05:27:54.544Z,61.93
2023-04-19T05:30:22.889Z,62.02
2023-04-19T05:32:52.790Z,61.91
2023-04-19T05:35:21.520Z,61.84
2023-04-19T05:37:49.845Z,61.43
2023-04-19T05:40:19.364Z,60.80
2023-04-19T05:42:47.804Z,59.77
2023-04-19T05:45:16.705Z,59.47
2023-04-19T05:47:45.092Z,58.90
2023-04-19T05:50:30.933Z,57.55
2023-04-19T05:53:22.366Z,56.30
2023-04-19T05:55:53.115Z,54.98
2023-04-19T05:58:21.863Z,53.16
2023-04-19T06:00:51.874Z,52.31
2023-04-19T06:03:20.584Z,51.85
2023-04-19T06:05:49.611Z,51.09
2023-04-19T06:08:19.348Z,50.14
2023-04-19T06:10:54.695Z,49.46
2023-04-19T06:13:26.783Z,49.31
2023-04-19T06:15:55.129Z,49.26
2023-04-19T06:18:23.359Z,48.48
2023-04-19T06:20:53.346Z,48.00
2023-04-19T06:23:21.689Z,47.22
2023-04-19T06:25:49.934Z,46.99
2023-04-19T06:28:18.569Z,47.24
2023-04-19T06:30:46.719Z,47.45
2023-04-19T06:33:15.680Z,47.02
2023-04-19T06:35:44.025Z,46.38
2023-04-19T06:38:12.165Z,46.00
2023-04-19T06:40:40.656Z,45.55
2023-04-19T06:43:08.838Z,45.12
2023-04-19T06:45:37.630Z,45.12
2023-04-19T06:48:06.054Z,45.28
2023-04-19T06:50:34.372Z,44.69
2023-04-19T06:53:04.837Z,44.28
2023-04-19T06:55:33.891Z,43.94
2023-04-19T06:58:02.916Z,44.19
2023-04-19T07:00:32.542Z,44.49
2023-04-19T07:03:01.531Z,44.30
2023-04-19T07:05:31.156Z,44.28
2023-04-19T07:07:59.400Z,44.09
2023-04-19T07:10:28.594Z,44.45
2023-04-19T07:12:57.234Z,44.56
2023-04-19T07:15:25.779Z,44.69
2023-04-19T07:17:54.341Z,44.61
2023-04-19T07:20:22.844Z,44.27
2023-04-19T07:22:51.096Z,43.58
2023-04-19T07:25:19.273Z,43.69
2023-04-19T07:27:47.586Z,44.11
2023-04-19T07:30:15.837Z,44.55
2023-04-19T07:32:44.870Z,45.11
2023-04-19T07:35:13.251Z,45.03
2023-04-19T07:37:42.693Z,44.46
2023-04-19T07:40:11.801Z,44.75
2023-04-19T07:42:40.100Z,45.13
2023-04-19T07:45:09.767Z,45.74
2023-04-19T07:47:38.060Z,45.71
2023-04-19T07:50:07.870Z,45.47
2023-04-19T07:52:36.075Z,44.90
2023-04-19T07:55:04.888Z,44.41
2023-04-19T07:57:33.585Z,44.56
2023-04-19T08:00:02.459Z,44.60
2023-04-19T08:02:31.614Z,44.62
2023-04-19T08:05:00.044Z,44.61
2023-04-19T08:07:28.456Z,45.03
2023-04-19T08:09:57.432Z,45.37
2023-04-19T08:12:36.486Z,44.97
2023-04-19T08:15:15.239Z,44.89
2023-04-19T08:17:48.604Z,44.33
2023-04-19T08:20:17.911Z,43.58
2023-04-19T08:22:46.146Z,43.82
2023-04-19T08:25:14.304Z,43.62
2023-04-19T08:27:42.493Z,43.42
2023-04-19T08:30:11.148Z,43.15
2023-04-19T08:32:39.650Z,42.84
2023-04-19T08:35:08.449Z,43.10
2023-04-19T08:37:36.725Z,42.37
2023-04-19T08:40:05.697Z,42.18
2023-04-19T08:42:37.136Z,41.78
2023-04-19T08:45:27.152Z,41.99
2023-04-19T08:48:01.160Z,42.02
2023-04-19T08:50:36.084Z,41.87
2023-04-19T08:53:23.948Z,41.16
2023-04-19T08:58:46.690Z,40.73
2023-04-19T09:04:01.309Z,41.13
2023-04-19T09:06:39.191Z,40.81
2023-04-19T09:09:39.115Z,40.46
2023-04-19T09:12:20.707Z,40.26
2023-04-19T09:17:20.367Z,39.84
2023-04-19T09:19:49.286Z,39.64
2023-04-19T09:22:18.014Z,39.38
2023-04-19T09:27:25.440Z,39.41
2023-04-19T09:30:00.953Z,39.22
2023-04-19T09:32:29.885Z,39.24
2023-04-19T09:34:59.556Z,39.20
2023-04-19T09:37:51.290Z,38.69
2023-04-19T09:40:27.080Z,38.27
2023-04-19T09:43:07.394Z,37.74
2023-04-19T09:45:43.926Z,37.11
2023-04-19T09:48:12.674Z,36.97
2023-04-19T09:51:02.344Z,37.62
2023-04-19T09:53:34.772Z,37.46
2023-04-19T09:56:06.312Z,37.75
2023-04-19T09:58:46.818Z,37.76
2023-04-19T10:01:19.498Z,38.08
2023-04-19T10:03:49.331Z,38.79
2023-04-19T10:08:50.425Z,38.38
2023-04-19T10:11:22.167Z,38.28
2023-04-19T10:13:50.680Z,38.82
2023-04-19T10:16:20.150Z,38.89
2023-04-19T10:18:50.187Z,39.04
2023-04-19T10:21:18.836Z,39.36
2023-04-19T10:23:47.105Z,39.55
2023-04-19T10:26:16.187Z,39.44
2023-04-19T10:28:44.378Z,39.23
2023-04-19T10:31:13.662Z,39.86
2023-04-19T10:33:42.294Z,40.01
2023-04-19T10:36:11.813Z,39.44
2023-04-19T10:38:40.432Z,38.89
2023-04-19T10:41:15.353Z,38.46
2023-04-19T10:43:48.616Z,38.03
2023-04-19T10:46:23.332Z,38.31
2023-04-19T10:48:54.032Z,38.33
2023-04-19T10:51:44.374Z,38.42
2023-04-19T10:54:32.604Z,37.73
2023-04-19T10:57:05.685Z,37.33
2023-04-19T10:59:38.079Z,37.17
2023-04-19T11:02:29.202Z,37.26
2023-04-19T11:04:59.384Z,37.97
2023-04-19T11:07:27.690Z,37.68
2023-04-19T11:09:55.885Z,37.47
2023-04-19T11:12:24.166Z,37.62
2023-04-19T11:14:54.523Z,38.11
2023-04-19T11:17:31.864Z,38.30
2023-04-19T11:20:02.013Z,38.53
2023-04-19T11:22:31.455Z,39.23
2023-04-19T11:25:17.531Z,39.37
2023-04-19T11:27:47.493Z,39.34
2023-04-19T11:30:29.121Z,39.17
2023-04-19T11:32:57.926Z,38.63
2023-04-19T11:35:27.602Z,38.58
2023-04-19T11:37:56.823Z,39.06
2023-04-19T11:40:26.466Z,39.58
2023-04-19T11:42:56.192Z,40.08
2023-04-19T11:45:35.541Z,40.44
2023-04-19T11:48:07.826Z,40.83
2023-04-19T11:50:43.262Z,41.25
2023-04-19T11:53:14.986Z,41.90
2023-04-19T11:55:47.702Z,42.24
2023-04-19T11:58:29.987Z,42.80
2023-04-19T12:01:04.338Z,43.34
2023-04-19T12:03:54.595Z,43.83
2023-04-19T12:06:30.939Z,44.06
2023-04-19T12:08:59.348Z,44.42
2023-04-19T12:11:47.112Z,44.88
2023-04-19T12:14:16.978Z,45.19
2023-04-19T12:16:46.024Z,45.72
2023-04-19T12:19:20.395Z,46.23
2023-04-19T12:21:49.878Z,46.56
2023-04-19T12:24:18.364Z,46.80
2023-04-19T12:26:56.346Z,47.41
2023-04-19T12:29:24.878Z,48.00
2023-04-19T12:31:53.422Z,48.70
2023-04-19T12:34:21.876Z,48.87
2023-04-19T12:36:50.272Z,49.21
2023-04-19T12:39:18.817Z,49.37
2023-04-19T12:41:49.452Z,49.54
2023-04-19T12:44:17.736Z,49.87
2023-04-19T12:46:46.450Z,50.10
2023-04-19T12:49:15.221Z,50.25
2023-04-19T12:51:43.980Z,50.39
2023-04-19T12:54:12.431Z,50.61
2023-04-19T12:56:41.030Z,51.04
2023-04-19T12:59:09.797Z,50.79
2023-04-19T13:01:38.209Z,51.07
2023-04-19T13:04:08.100Z,51.28
2023-04-19T13:06:38.769Z,51.49
2023-04-19T13:09:14.376Z,51.66
2023-04-19T13:11:43.214Z,51.93
2023-04-19T13:14:11.546Z,52.24
2023-04-19T13:16:40.339Z,52.46
2023-04-19T13:19:08.822Z,52.72
2023-04-19T13:21:37.270Z,53.04
2023-04-19T13:24:05.770Z,53.42
2023-04-19T13:26:34.875Z,53.52
2023-04-19T13:29:03.239Z,53.51
2023-04-19T13:31:32.327Z,53.88
2023-04-19T13:34:01.481Z,53.92
2023-04-19T13:36:30.045Z,54.01
2023-04-19T13:38:58.774Z,53.94
2023-04-19T13:41:26.975Z,54.14
2023-04-19T13:43:55.095Z,54.49
2023-04-19T13:46:23.320Z,54.73
2023-04-19T13:48:51.532Z,54.72
2023-04-19T13:51:19.816Z,54.83
2023-04-19T13:53:47.949Z,54.91
2023-04-19T14:37:37.728Z,50.59
2023-04-19T14:40:20.018Z,49.92
2023-04-19T14:43:02.000Z,49.92
2023-04-19T14:45:56.868Z,50.22
2023-04-19T14:48:32.382Z,49.94
2023-04-19T14:51:02.356Z,49.80
2023-04-19T14:53:41.015Z,49.73
2023-04-19T14:56:26.348Z,49.91
2023-04-19T14:59:04.823Z,50.07
2023-04-19T15:02:10.971Z,49.92
2023-04-19T15:04:56.871Z,50.04
2023-04-19T15:07:24.378Z,50.08
2023-04-19T15:10:12.777Z,50.15
2023-04-19T15:12:43.190Z,50.37
2023-04-19T15:15:16.987Z,50.57
2023-04-19T15:17:54.039Z,50.57
2023-04-19T15:20:21.391Z,50.65
2023-04-19T15:22:53.394Z,50.75
2023-04-19T15:25:40.386Z,50.28
2023-04-19T15:28:10.404Z,50.29
2023-04-19T15:31:29.437Z,50.71
2023-04-19T15:34:02.266Z,50.96
2023-04-19T15:36:44.265Z,51.04
2023-04-19T15:39:13.679Z,50.89
2023-04-19T15:41:45.770Z,50.80
2023-04-19T15:44:16.191Z,51.00
2023-04-19T15:47:03.321Z,51.00
2023-04-19T15:49:53.851Z,51.05
2023-04-19T15:52:42.262Z,51.36
2023-04-19T15:55:34.071Z,51.53
2023-04-19T15:58:23.420Z,51.56
2023-04-19T16:00:55.357Z,51.83
2023-04-19T16:04:09.185Z,51.93
2023-04-19T16:06:36.798Z,52.26
2023-04-19T16:09:28.911Z,52.54
2023-04-19T16:12:26.638Z,52.56
2023-04-19T16:15:11.307Z,52.77
2023-04-19T16:17:57.965Z,53.15
2023-04-19T16:20:30.167Z,53.50
2023-04-19T16:23:21.839Z,53.50
2023-04-19T16:26:07.004Z,53.66
2023-04-19T16:28:51.796Z,53.76
2023-04-19T16:31:23.799Z,53.98
2023-04-19T16:33:56.766Z,54.10
2023-04-19T16:36:39.830Z,54.35
2023-04-19T16:39:10.400Z,54.45
2023-04-19T16:41:43.345Z,54.58
2023-04-19T16:44:14.122Z,54.67
2023-04-19T16:46:54.703Z,54.80
2023-04-19T16:49:32.634Z,54.80
2023-04-19T16:52:35.100Z,54.77
2023-04-19T16:55:41.391Z,54.93
2023-04-19T16:58:17.248Z,55.01
2023-04-19T17:01:11.208Z,55.06
2023-04-19T17:03:53.796Z,55.21
2023-04-19T17:06:50.996Z,55.21
2023-04-19T17:09:26.774Z,55.28
2023-04-19T17:12:18.622Z,55.34
2023-04-19T17:15:04.713Z,55.35
2023-04-19T17:17:47.346Z,55.38
2023-04-19T17:21:12.328Z,55.39
2023-04-19T17:23:53.313Z,55.36
2023-04-19T17:26:27.195Z,55.34
2023-04-19T17:29:46.125Z,55.40
2023-04-19T17:33:34.943Z,55.04
2023-04-19T17:37:22.805Z,55.03
2023-04-19T17:40:50.061Z,54.94
2023-04-19T17:44:02.801Z,55.09
2023-04-19T17:47:01.077Z,55.16
2023-04-19T17:49:51.585Z,55.09
2023-04-19T17:52:34.131Z,55.16
2023-04-19T17:55:17.647Z,55.28
2023-04-19T17:58:04.365Z,55.35
2023-04-19T18:01:16.041Z,55.08
2023-04-19T18:04:27.084Z,54.33
2023-04-19T18:07:00.795Z,54.01
2023-04-19T18:09:34.227Z,53.82
2023-04-19T18:12:06.798Z,53.58
2023-04-19T18:15:08.889Z,53.44
2023-04-19T18:18:13.942Z,53.21
2023-04-19T18:20:52.470Z,52.89
2023-04-19T18:23:41.630Z,52.87
2023-04-19T18:26:33.997Z,52.85
2023-04-19T18:29:11.651Z,52.79
2023-04-19T18:32:59.901Z,52.83
2023-04-19T18:36:26.975Z,53.01
2023-04-19T18:39:14.894Z,53.13
2023-04-19T18:41:49.939Z,53.26
2023-04-19T18:44:44.286Z,53.39
2023-04-19T18:47:37.946Z,53.64
2023-04-19T18:50:19.160Z,53.85
2023-04-19T18:53:19.581Z,54.11
2023-04-19T18:56:09.404Z,54.22
2023-04-19T18:58:39.901Z,54.46
2023-04-19T19:01:19.237Z,54.79
2023-04-19T19:04:10.715Z,55.18
2023-04-19T19:06:52.412Z,55.22
2023-04-19T19:09:28.048Z,55.64
2023-04-19T19:12:06.032Z,55.85
2023-04-19T19:14:40.683Z,55.90
2023-04-19T19:17:36.261Z,56.09
2023-04-19T19:20:32.342Z,56.15
2023-04-19T19:23:25.771Z,56.26
2023-04-19T19:26:22.753Z,56.02
2023-04-19T19:28:57.992Z,56.21
2023-04-19T19:31:28.387Z,56.34
2023-04-19T19:34:23.489Z,56.50
2023-04-19T19:37:16.460Z,56.87
2023-04-19T19:39:56.835Z,57.10
2023-04-19T19:42:31.110Z,57.24
2023-04-19T19:44:59.572Z,57.25
2023-04-19T19:47:29.922Z,57.48
2023-04-19T19:50:31.414Z,57.66
2023-04-19T19:52:54.786Z,57.86
2023-04-19T19:55:31.932Z,58.01
2023-04-19T19:58:48.309Z,58.18
2023-04-19T20:02:16.932Z,58.13
2023-04-19T20:05:47.966Z,57.88
2023-04-19T20:08:47.311Z,57.58
2023-04-19T20:11:55.899Z,57.30
2023-04-19T20:15:04.576Z,56.88
2023-04-19T20:18:07.704Z,56.23
2023-04-19T20:21:38.595Z,56.04
2023-04-19T20:25:09.669Z,55.83
2023-04-19T20:29:02.734Z,55.66
2023-04-19T20:31:52.215Z,55.62
2023-04-19T20:34:57.209Z,55.53
2023-04-19T20:37:50.650Z,55.58
2023-04-19T20:41:10.680Z,55.43
2023-04-19T20:44:34.307Z,54.99
2023-04-19T20:47:12.644Z,54.89
2023-04-19T20:49:46.187Z,54.86
2023-04-19T20:52:21.918Z,55.05
2023-04-19T20:55:09.812Z,55.24
2023-04-19T20:57:42.737Z,55.28
2023-04-19T21:00:34.917Z,55.23
2023-04-19T21:03:08.885Z,55.31
2023-04-19T21:05:41.840Z,55.30
2023-04-19T21:08:18.555Z,55.46
2023-04-19T21:10:54.170Z,55.45
2023-04-19T21:13:40.674Z,55.62
2023-04-19T21:16:32.722Z,55.70
2023-04-19T21:19:21.858Z,55.72
2023-04-19T21:22:13.367Z,55.81
2023-04-19T21:24:48.751Z,55.77
2023-04-19T21:27:33.299Z,55.91
2023-04-19T21:30:29.084Z,55.84
2023-04-19T21:33:12.964Z,56.04
2023-04-19T21:36:09.988Z,55.92
2023-04-19T21:38:49.788Z,56.05
2023-04-19T21:41:21.833Z,56.30
2023-04-19T21:43:49.378Z,56.32
2023-04-19T21:46:44.602Z,56.17
2023-04-19T21:49:36.968Z,56.51
2023-04-19T21:52:25.773Z,56.23
2023-04-19T21:55:05.307Z,56.06
2023-04-19T21:57:38.013Z,56.10
2023-04-19T22:00:10.923Z,56.12
2023-04-19T22:02:53.636Z,56.31
2023-04-19T22:05:30.773Z,56.30
2023-04-19T22:08:22.265Z,56.19
2023-04-19T22:10:59.596Z,56.05
2023-04-19T22:13:34.810Z,56.35
2023-04-19T22:16:27.639Z,56.52
2023-04-19T22:19:00.781Z,56.56
2023-04-19T22:21:33.645Z,56.63
2023-04-19T22:24:08.564Z,56.78
2023-04-19T22:26:46.837Z,56.70
2023-04-19T22:29:22.070Z,56.64
2023-04-19T22:32:26.802Z,56.60
2023-04-19T22:35:00.992Z,56.35
2023-04-19T22:37:31.290Z,56.30
2023-04-19T22:40:06.523Z,56.42
2023-04-19T22:43:07.822Z,56.18
2023-04-19T22:45:40.238Z,56.15
2023-04-19T22:48:13.212Z,56.04
2023-04-19T22:50:43.622Z,56.06
2023-04-19T22:53:23.788Z,56.07
2023-04-19T22:56:05.001Z,56.08
2023-04-19T22:58:36.177Z,55.73
2023-04-19T23:01:08.225Z,55.89
2023-04-19T23:03:41.806Z,55.83
2023-04-19T23:06:30.295Z,55.69
2023-04-19T23:09:10.365Z,55.87
2023-04-19T23:11:40.078Z,55.78
2023-04-19T23:14:26.860Z,55.75
2023-04-19T23:17:03.320Z,55.79
2023-04-19T23:19:34.796Z,55.55
2023-04-19T23:22:21.669Z,55.29
2023-04-19T23:25:14.351Z,55.22
2023-04-19T23:27:58.972Z,55.29
2023-04-19T23:30:39.070Z,55.13
2023-04-19T23:33:36.119Z,55.30
2023-04-19T23:36:12.545Z,55.08
2023-04-19T23:38:52.148Z,55.12
2023-04-19T23:41:28.905Z,55.16
2023-04-19T23:44:04.376Z,55.41
2023-04-19T23:46:34.669Z,55.33
2023-04-19T23:49:17.192Z,55.25
2023-04-19T23:51:50.480Z,55.20
2023-04-19T23:54:25.674Z,55.26
2023-04-19T23:57:00.815Z,55.22
2023-04-19T23:59:43.897Z,55.16
